This is the latest recevied weather packets stored in our database for station/object GW1598. If no packets are shown the sender has not sent any weather packets the latest 10 day(s).
| Time | Temp. | Humidity | Pressure | Rain* | Wind** | Luminosity | Snow |
|---|---|---|---|---|---|---|---|
| 1777658813 | 17.22° C | 49% | 1007.1 hPa | 0 mm | - | - | - |
| 1777653757 | 15.56° C | 56% | 1007.7 hPa | 0 mm | - | - | - |
| 1777644932 | 10.56° C | 80% | 1009.1 hPa | 0 mm | - | - | - |
| 1777640613 | 6.67° C | 99% | 1009.1 hPa | 0 mm | - | - | - |
| 1777636650 | 2.78° C | 98% | 1009.8 hPa | 0 mm | - | - | - |
| 1777634140 | 2.22° C | 98% | 1009.8 hPa | 0 mm | - | - | - |
| 1777631268 | 2.22° C | 98% | 1009.8 hPa | 0 mm | - | - | - |
| 1777629089 | 2.22° C | 98% | 1009.8 hPa | 0 mm | - | - | - |
| 1777628750 | 2.22° C | 98% | 1009.8 hPa | 0 mm | - | - | - |
| 1777628362 | 2.78° C | 98% | 1009.8 hPa | 0 mm | - | - | - |
| 1777621373 | 3.33° C | 97% | 1009.8 hPa | 0 mm | - | - | - |
| 1777620987 | 3.33° C | 97% | 1009.8 hPa | 0 mm | - | - | - |
| 1777618453 | 3.89° C | 97% | 1010.4 hPa | 0 mm | - | - | - |
| 1777613961 | 4.44° C | 97% | 1010.8 hPa | 0 mm | - | - | - |
| 1777602431 | 6.67° C | 91% | 1011.8 hPa | 0.25 mm | - | - | - |
| 1777601753 | 6.67° C | 91% | 1011.8 hPa | 0.25 mm | - | - | - |
| 1777601372 | 6.67° C | 90% | 1011.5 hPa | 0.25 mm | - | - | - |
| 1777600669 | 7.22° C | 89% | 1011.1 hPa | 0.25 mm | - | - | - |
| 1777599562 | 7.78° C | 87% | 1011.1 hPa | 0.25 mm | - | - | - |
| 1777597785 | 8.89° C | 83% | 1010.8 hPa | 0.25 mm | - | - | - |
| 1777593794 | 12.22° C | 69% | 1010.1 hPa | 0.25 mm | - | - | - |
| 1777593442 | 12.78° C | 66% | 1009.8 hPa | 0.25 mm | - | - | - |
| 1777593078 | 12.78° C | 66% | 1009.8 hPa | 0.25 mm | - | - | - |
| 1777592017 | 13.33° C | 64% | 1009.8 hPa | 0.25 mm | - | - | - |
| 1777589513 | 13.89° C | 62% | 1009.8 hPa | 0.25 mm | - | - | - |
* Rain since midnight (hover to see other rain measurements)
** Current wind speed in m/s (hover to see current wind gust speed)